Time;durP1;ratioP1;P1;durP2;ratioP2;P2;SDS_P1;SDS_P2;PMS_P1;PMS_P2;Temp;Humidity;BMP_temperature;BMP_pressure;BME280_temperature;BME280_humidity;BME280_pressure;Samples;Min_cycle;Max_cycle;Signal;HPM_P1;HPM_P2
2022/06/29 00:00:19;;;;;;;7.78;3.40;;;16.60;99.90;;;;;;5059868;28;20047;-76
2022/06/29 00:02:46;;;;;;;6.45;3.70;;;16.60;99.90;;;;;;5044284;28;20051;-76
2022/06/29 00:05:14;;;;;;;8.68;3.88;;;16.70;99.90;;;;;;5074041;28;20086;-76
2022/06/29 00:07:41;;;;;;;9.20;3.70;;;16.70;99.90;;;;;;5036094;28;20044;-77
2022/06/29 00:10:08;;;;;;;9.70;3.70;;;16.60;99.90;;;;;;5083048;28;20132;-76
2022/06/29 00:12:34;;;;;;;9.00;3.70;;;16.60;99.90;;;;;;5048968;28;20064;-78
2022/06/29 00:15:02;;;;;;;8.52;3.97;;;16.60;99.90;;;;;;5048951;28;20098;-78
2022/06/29 00:17:32;;;;;;;5.72;3.60;;;16.60;99.90;;;;;;5048133;28;20179;-78
2022/06/29 00:19:59;;;;;;;7.90;3.78;;;16.50;99.90;;;;;;5043505;28;20094;-76
2022/06/29 00:22:26;;;;;;;10.63;3.60;;;16.50;99.90;;;;;;5061608;28;20059;-77
2022/06/29 00:24:52;;;;;;;11.73;4.18;;;16.50;99.90;;;;;;5014719;28;20172;-77
2022/06/29 00:27:17;;;;;;;7.47;3.75;;;16.40;99.90;;;;;;5043424;28;20169;-77
2022/06/29 00:29:43;;;;;;;7.72;3.83;;;16.40;99.90;;;;;;5040621;28;20068;-77
2022/06/29 00:32:09;;;;;;;9.80;3.88;;;16.40;99.90;;;;;;5025836;28;20048;-77
2022/06/29 00:34:35;;;;;;;9.60;3.42;;;16.40;99.90;;;;;;5057649;28;20041;-77
2022/06/29 00:37:01;;;;;;;8.63;3.67;;;16.30;99.90;;;;;;5057642;28;21269;-78
2022/06/29 00:39:27;;;;;;;7.82;3.95;;;16.20;99.90;;;;;;5060323;28;20098;-77
2022/06/29 00:41:53;;;;;;;7.22;3.80;;;16.20;99.90;;;;;;5025906;28;20051;-77
2022/06/29 00:44:20;;;;;;;10.10;4.00;;;16.20;99.90;;;;;;5043033;28;20036;-78
2022/06/29 00:46:50;;;;;;;9.52;4.35;;;16.30;99.90;;;;;;5041725;28;20040;-77
2022/06/29 00:49:18;;;;;;;7.63;4.18;;;16.10;99.90;;;;;;5047845;28;20431;-78
2022/06/29 00:51:49;;;;;;;12.50;3.97;;;16.10;99.90;;;;;;5057454;28;20056;-76
2022/06/29 00:54:19;;;;;;;8.70;4.15;;;16.10;99.90;;;;;;5028034;28;20045;-76
2022/06/29 00:56:46;;;;;;;11.35;4.07;;;16.00;99.90;;;;;;5055588;28;20157;-76
2022/06/29 00:59:15;;;;;;;7.55;4.10;;;16.00;99.90;;;;;;5074782;28;20410;-76
2022/06/29 01:01:42;;;;;;;8.00;4.30;;;16.00;99.90;;;;;;5077655;28;20037;-76
2022/06/29 01:04:08;;;;;;;10.68;4.18;;;15.90;99.90;;;;;;5062734;28;20040;-80
2022/06/29 01:06:34;;;;;;;6.78;3.90;;;15.90;99.90;;;;;;5048245;28;20049;-77
2022/06/29 01:09:00;;;;;;;12.77;4.53;;;15.90;99.90;;;;;;5028821;28;20036;-79
2022/06/29 01:11:27;;;;;;;7.65;4.20;;;15.90;99.90;;;;;;5048962;28;21685;-77
2022/06/29 01:13:53;;;;;;;8.02;4.20;;;15.90;99.90;;;;;;5078238;28;20048;-79
2022/06/29 01:16:19;;;;;;;9.10;4.03;;;15.80;99.90;;;;;;5046552;28;20040;-78
2022/06/29 01:18:45;;;;;;;8.20;4.18;;;15.80;99.90;;;;;;5029798;28;20357;-80
2022/06/29 01:21:11;;;;;;;10.45;3.92;;;15.80;99.90;;;;;;5063354;28;20048;-78
2022/06/29 01:23:37;;;;;;;8.02;4.22;;;15.80;99.90;;;;;;5081612;28;20183;-78
2022/06/29 01:26:08;;;;;;;9.18;4.60;;;15.80;99.90;;;;;;5033757;28;20329;-78
2022/06/29 01:28:33;;;;;;;8.63;4.18;;;15.80;99.90;;;;;;5035025;28;20119;-81
2022/06/29 01:31:00;;;;;;;5.47;3.90;;;15.90;99.90;;;;;;5043891;28;20045;-77
2022/06/29 01:33:26;;;;;;;8.05;4.38;;;15.80;99.90;;;;;;5036983;28;20395;-78
2022/06/29 01:35:52;;;;;;;6.32;4.03;;;15.90;99.90;;;;;;5074694;28;20550;-77
2022/06/29 01:38:19;;;;;;;5.85;3.90;;;15.90;99.90;;;;;;5049955;28;20043;-78
2022/06/29 01:40:45;;;;;;;7.63;4.40;;;15.80;99.90;;;;;;5081845;28;20045;-78
2022/06/29 01:43:11;;;;;;;6.85;4.32;;;15.90;99.90;;;;;;5050994;28;20047;-78
2022/06/29 01:45:37;;;;;;;7.10;4.78;;;15.80;99.90;;;;;;5069848;28;20032;-78
2022/06/29 01:48:03;;;;;;;6.45;4.32;;;15.90;99.90;;;;;;5089754;28;20071;-80
2022/06/29 01:50:29;;;;;;;9.15;4.60;;;16.00;99.90;;;;;;5068475;28;20040;-78
2022/06/29 01:52:54;;;;;;;7.75;4.90;;;16.00;99.90;;;;;;5065867;28;20048;-79
2022/06/29 01:55:20;;;;;;;10.50;4.70;;;16.10;99.90;;;;;;5049254;28;20046;-79
2022/06/29 01:57:55;;;;;;;8.70;4.68;;;16.10;99.90;;;;;;5048035;28;20040;-81
2022/06/29 02:00:21;;;;;;;9.13;4.82;;;16.10;99.90;;;;;;5049509;28;20040;-77
2022/06/29 02:02:46;;;;;;;10.18;4.60;;;16.10;99.90;;;;;;5035996;28;20365;-79
2022/06/29 02:05:15;;;;;;;10.50;4.93;;;16.10;99.90;;;;;;5067414;28;20318;-80
2022/06/29 02:07:41;;;;;;;6.90;4.53;;;16.20;99.90;;;;;;5049642;28;20411;-78
2022/06/29 02:10:07;;;;;;;7.53;4.63;;;16.20;99.90;;;;;;5046031;28;20047;-77
2022/06/29 02:12:33;;;;;;;8.32;5.10;;;16.20;99.90;;;;;;5080508;28;20071;-77
2022/06/29 02:14:59;;;;;;;8.70;5.00;;;16.20;99.90;;;;;;5051182;28;20089;-79
2022/06/29 02:17:24;;;;;;;10.00;4.85;;;16.30;99.90;;;;;;5048605;28;20036;-78
2022/06/29 02:19:50;;;;;;;7.40;4.63;;;16.30;99.90;;;;;;5082934;28;20041;-77
2022/06/29 02:22:16;;;;;;;9.05;4.53;;;16.20;99.90;;;;;;5061665;28;20487;-79
2022/06/29 02:24:42;;;;;;;8.15;4.60;;;16.30;99.90;;;;;;5047940;28;20130;-80
2022/06/29 02:27:10;;;;;;;9.57;4.88;;;16.30;99.90;;;;;;5047913;28;20556;-79
2022/06/29 02:29:36;;;;;;;7.72;4.30;;;16.30;99.90;;;;;;5063123;28;20044;-79
2022/06/29 02:34:46;;;;;;;8.27;4.68;;;16.20;99.90;;;;;;5079028;28;20485;-77
2022/06/29 02:37:16;;;;;;;7.63;4.80;;;16.20;99.90;;;;;;5077200;28;20132;-78
2022/06/29 02:39:43;;;;;;;7.20;4.50;;;16.20;99.90;;;;;;5027977;28;20051;-79
2022/06/29 02:42:10;;;;;;;9.32;4.65;;;16.20;99.90;;;;;;5027773;28;20048;-78
2022/06/29 02:44:36;;;;;;;8.18;4.88;;;16.20;99.90;;;;;;5082524;28;20074;-79
2022/06/29 02:47:04;;;;;;;10.07;4.65;;;16.20;99.90;;;;;;5034823;28;20040;-79
2022/06/29 02:49:29;;;;;;;13.32;5.15;;;16.20;99.90;;;;;;5035363;28;20094;-80
2022/06/29 02:51:55;;;;;;;9.90;4.90;;;16.20;99.90;;;;;;5050198;28;20459;-81
2022/06/29 02:54:21;;;;;;;8.68;5.00;;;16.20;99.90;;;;;;5082905;28;20063;-81
2022/06/29 02:56:46;;;;;;;8.80;4.43;;;16.20;99.90;;;;;;5039949;28;20417;-81
2022/06/29 02:59:49;;;;;;;9.10;4.60;;;16.20;99.90;;;;;;5076359;28;20063;-79
2022/06/29 03:02:15;;;;;;;7.57;4.72;;;16.20;99.90;;;;;;5036364;28;20435;-79
2022/06/29 03:04:41;;;;;;;10.45;4.53;;;16.20;99.90;;;;;;5033477;28;20067;-79
2022/06/29 03:07:06;;;;;;;7.70;4.30;;;16.20;99.90;;;;;;5063096;28;20047;-79
2022/06/29 03:09:32;;;;;;;8.10;4.80;;;16.20;99.90;;;;;;5073940;28;20040;-79
2022/06/29 03:11:58;;;;;;;6.57;4.40;;;16.20;99.90;;;;;;5047395;28;20037;-79
2022/06/29 03:15:01;;;;;;;7.72;4.47;;;16.20;99.90;;;;;;5063456;28;20041;-81
2022/06/29 03:17:26;;;;;;;11.70;4.63;;;16.20;99.90;;;;;;5063854;28;20124;-79
2022/06/29 03:19:52;;;;;;;11.30;4.80;;;16.20;99.90;;;;;;5049439;28;20194;-80
2022/06/29 03:22:18;;;;;;;11.07;4.32;;;16.20;99.90;;;;;;5081625;28;20119;-78
2022/06/29 03:24:44;;;;;;;10.60;4.72;;;16.20;99.90;;;;;;5027072;28;20052;-80
2022/06/29 03:27:09;;;;;;;5.90;4.78;;;16.10;99.90;;;;;;5043742;28;20515;-80
2022/06/29 03:29:35;;;;;;;8.00;4.50;;;16.10;99.90;;;;;;5056125;28;20505;-77
2022/06/29 03:32:00;;;;;;;9.48;4.70;;;16.10;99.90;;;;;;5061744;28;20472;-80
2022/06/29 03:34:27;;;;;;;7.95;5.00;;;16.00;99.90;;;;;;5027590;28;20041;-79
2022/06/29 03:36:52;;;;;;;6.80;4.28;;;16.10;99.90;;;;;;5045651;28;20041;-78
2022/06/29 03:39:18;;;;;;;6.55;4.80;;;16.10;99.90;;;;;;5030361;28;20464;-79
2022/06/29 03:41:44;;;;;;;11.90;4.75;;;16.10;99.90;;;;;;5053592;28;20057;-77
2022/06/29 03:44:10;;;;;;;10.25;4.63;;;16.10;99.90;;;;;;5056038;28;20063;-79
2022/06/29 03:46:35;;;;;;;7.60;4.63;;;16.20;99.90;;;;;;5027521;28;20092;-79
2022/06/29 03:49:01;;;;;;;10.60;4.57;;;16.20;99.90;;;;;;5029159;28;20484;-78
2022/06/29 03:51:27;;;;;;;7.03;4.55;;;16.20;99.90;;;;;;5062899;28;20040;-79
2022/06/29 03:53:52;;;;;;;8.35;4.40;;;16.30;99.90;;;;;;5059449;28;20051;-81
2022/06/29 03:56:19;;;;;;;10.70;4.85;;;16.20;99.90;;;;;;5059265;28;20043;-81
2022/06/29 03:58:44;;;;;;;9.32;4.80;;;16.20;99.90;;;;;;5050726;28;20142;-81
2022/06/29 04:01:10;;;;;;;10.43;4.32;;;16.30;99.90;;;;;;5047177;28;20123;-78
2022/06/29 04:03:36;;;;;;;7.90;4.15;;;16.30;99.90;;;;;;5027091;28;20051;-78
2022/06/29 04:06:02;;;;;;;7.60;4.30;;;16.30;99.90;;;;;;5056601;28;20032;-77
2022/06/29 04:08:28;;;;;;;11.02;4.75;;;16.40;99.90;;;;;;5057315;28;20047;-79
2022/06/29 04:10:54;;;;;;;7.90;4.68;;;16.40;99.90;;;;;;5062316;28;20040;-80
2022/06/29 04:13:19;;;;;;;7.28;4.55;;;16.30;99.90;;;;;;5079684;28;20036;-79
2022/06/29 04:15:45;;;;;;;7.55;4.25;;;16.40;99.90;;;;;;5045479;28;20116;-78
2022/06/29 04:18:11;;;;;;;6.88;4.57;;;16.30;99.90;;;;;;5029256;28;20051;-79
2022/06/29 04:23:21;;;;;;;7.93;4.32;;;16.40;99.90;;;;;;5055552;28;20068;-78
2022/06/29 04:25:47;;;;;;;9.75;4.55;;;16.40;99.90;;;;;;5040097;28;20133;-77
2022/06/29 04:28:14;;;;;;;9.15;4.20;;;16.50;99.90;;;;;;5071973;28;20056;-79
2022/06/29 04:30:43;;;;;;;8.23;4.70;;;16.60;99.90;;;;;;5053631;28;20041;-78
2022/06/29 04:33:09;;;;;;;13.10;4.75;;;16.60;99.90;;;;;;5087245;28;20037;-78
2022/06/29 04:35:35;;;;;;;5.18;4.55;;;16.70;99.90;;;;;;5072296;28;20059;-78
2022/06/29 04:38:01;;;;;;;6.72;4.90;;;16.80;99.90;;;;;;5071972;28;20387;-79
2022/06/29 04:40:26;;;;;;;7.53;4.45;;;16.90;99.90;;;;;;5060346;28;20075;-79
2022/06/29 04:42:52;;;;;;;13.63;4.95;;;17.20;99.90;;;;;;5075740;28;20414;-81
2022/06/29 04:48:20;;;;;;;6.68;4.80;;;17.20;99.90;;;;;;5089030;28;20105;-79
2022/06/29 04:50:46;;;;;;;6.15;4.40;;;17.20;99.90;;;;;;5039754;28;20068;-82
2022/06/29 04:53:13;;;;;;;10.00;4.80;;;17.30;99.90;;;;;;5020664;28;20119;-79
2022/06/29 04:55:39;;;;;;;6.03;4.25;;;18.00;99.90;;;;;;5037174;28;20056;-81
2022/06/29 04:58:04;;;;;;;14.40;4.57;;;18.40;99.90;;;;;;5067501;28;20048;-79
2022/06/29 05:00:30;;;;;;;8.25;4.63;;;18.20;99.90;;;;;;5038125;28;20610;-79
2022/06/29 05:02:57;;;;;;;6.75;4.45;;;18.10;99.90;;;;;;5035351;28;20033;-81
2022/06/29 05:05:23;;;;;;;7.47;4.45;;;17.80;99.90;;;;;;5047783;28;20044;-79
2022/06/29 05:07:48;;;;;;;5.68;4.45;;;17.80;99.90;;;;;;5041709;28;20044;-81
2022/06/29 05:10:15;;;;;;;7.70;4.30;;;17.70;99.90;;;;;;5034295;28;20040;-79
2022/06/29 05:12:42;;;;;;;12.38;4.40;;;17.70;99.90;;;;;;5034950;28;20053;-78
2022/06/29 05:15:08;;;;;;;7.47;4.40;;;17.60;99.90;;;;;;5066676;28;20482;-78
2022/06/29 05:17:37;;;;;;;5.32;4.47;;;17.60;99.90;;;;;;5033797;28;20044;-79
2022/06/29 05:20:08;;;;;;;10.65;4.63;;;17.70;99.90;;;;;;5067476;28;20490;-79
2022/06/29 05:22:35;;;;;;;6.95;4.70;;;17.70;99.90;;;;;;5046046;28;20079;-80
2022/06/29 05:25:02;;;;;;;7.20;4.63;;;17.70;99.90;;;;;;5052410;28;20033;-80
2022/06/29 05:27:27;;;;;;;7.47;4.45;;;17.80;99.90;;;;;;5034686;28;20052;-78
2022/06/29 05:29:53;;;;;;;14.77;4.63;;;17.80;99.90;;;;;;5063546;28;20051;-79
2022/06/29 05:32:19;;;;;;;7.70;4.22;;;17.80;99.90;;;;;;5030482;28;20500;-80
2022/06/29 05:34:45;;;;;;;10.00;4.32;;;17.90;99.90;;;;;;5061148;28;20048;-81
2022/06/29 05:37:10;;;;;;;7.07;4.15;;;17.90;99.90;;;;;;5050233;28;20040;-82
2022/06/29 05:39:37;;;;;;;7.47;4.47;;;18.00;99.90;;;;;;5087068;28;20052;-79
2022/06/29 05:42:04;;;;;;;6.45;4.18;;;18.00;99.90;;;;;;5032949;28;20047;-80
2022/06/29 05:44:29;;;;;;;7.00;3.95;;;18.00;99.90;;;;;;5070724;28;20033;-80
2022/06/29 05:46:55;;;;;;;9.65;4.03;;;18.10;99.90;;;;;;5055607;28;20086;-82
2022/06/29 05:49:21;;;;;;;7.03;3.97;;;18.10;99.90;;;;;;5059313;28;20093;-78
2022/06/29 05:51:47;;;;;;;9.52;3.95;;;18.10;99.90;;;;;;5086381;28;20585;-79
2022/06/29 05:54:12;;;;;;;5.80;3.50;;;18.20;99.90;;;;;;5036800;28;20051;-78
2022/06/29 05:56:38;;;;;;;6.20;3.75;;;18.40;99.90;;;;;;5029145;28;20056;-78
2022/06/29 05:59:04;;;;;;;5.63;3.30;;;18.60;99.90;;;;;;5039242;28;20123;-76
2022/06/29 06:01:29;;;;;;;9.32;3.53;;;18.70;99.90;;;;;;5049964;28;20135;-78
2022/06/29 06:03:55;;;;;;;6.43;3.58;;;18.90;99.90;;;;;;5066447;28;20535;-78
2022/06/29 06:06:20;;;;;;;5.57;3.50;;;19.00;99.90;;;;;;5068474;28;20056;-76
2022/06/29 06:08:46;;;;;;;8.27;3.83;;;19.10;99.90;;;;;;5064959;28;20048;-77
2022/06/29 06:11:15;;;;;;;6.05;3.50;;;19.20;99.90;;;;;;5062011;28;20258;-75
2022/06/29 06:13:40;;;;;;;6.13;3.17;;;19.20;99.90;;;;;;5039719;28;20056;-75
2022/06/29 06:16:06;;;;;;;7.13;3.22;;;19.30;99.90;;;;;;5075465;28;20041;-76
2022/06/29 06:18:31;;;;;;;8.77;3.38;;;19.40;99.90;;;;;;5065633;28;20091;-77
2022/06/29 06:20:57;;;;;;;4.93;3.33;;;19.40;99.90;;;;;;5078975;28;20043;-75
2022/06/29 06:23:23;;;;;;;8.73;3.03;;;19.40;99.90;;;;;;5028783;28;20048;-75
2022/06/29 06:25:48;;;;;;;3.78;2.65;;;19.50;99.90;;;;;;5030130;28;20040;-76
2022/06/29 06:28:14;;;;;;;6.45;3.17;;;19.60;99.90;;;;;;5027869;28;20051;-76
2022/06/29 06:30:40;;;;;;;6.60;2.88;;;19.60;99.90;;;;;;5078509;28;20102;-76
2022/06/29 06:33:05;;;;;;;4.05;2.80;;;19.60;99.90;;;;;;5043180;28;20186;-76
2022/06/29 06:35:32;;;;;;;4.97;2.72;;;19.70;99.90;;;;;;5047010;28;20052;-76
2022/06/29 06:37:57;;;;;;;5.60;3.00;;;19.80;99.90;;;;;;5033050;28;20049;-75
2022/06/29 06:43:07;;;;;;;3.43;2.57;;;19.90;99.90;;;;;;5080944;28;20094;-76
2022/06/29 06:45:33;;;;;;;7.07;2.90;;;20.10;99.90;;;;;;5059395;28;20472;-76
2022/06/29 06:47:58;;;;;;;9.68;2.40;;;20.00;99.90;;;;;;5046001;28;20106;-75
2022/06/29 06:50:24;;;;;;;4.78;2.95;;;20.10;99.90;;;;;;5045330;28;20047;-75
2022/06/29 06:52:50;;;;;;;6.22;2.55;;;20.20;99.90;;;;;;5076865;28;20043;-74
2022/06/29 06:55:16;;;;;;;7.38;2.70;;;20.30;99.90;;;;;;5080387;28;20128;-75
2022/06/29 06:57:41;;;;;;;7.15;2.50;;;20.40;99.90;;;;;;5044013;28;20444;-75
2022/06/29 07:00:09;;;;;;;5.13;2.70;;;20.50;99.90;;;;;;5060387;28;20052;-75
2022/06/29 07:02:35;;;;;;;5.60;2.53;;;20.60;99.90;;;;;;5045083;28;20055;-75
2022/06/29 07:05:01;;;;;;;8.07;2.45;;;20.60;99.90;;;;;;5074745;28;20036;-76
2022/06/29 07:07:29;;;;;;;11.45;2.72;;;20.70;99.90;;;;;;5031337;28;20052;-80
2022/06/29 07:09:54;;;;;;;3.25;2.15;;;20.80;99.90;;;;;;5028620;28;20048;-78
2022/06/29 07:12:20;;;;;;;4.53;2.20;;;20.80;99.90;;;;;;5070960;28;20059;-78
2022/06/29 07:14:46;;;;;;;5.05;1.90;;;21.00;99.90;;;;;;5070109;28;20052;-78
2022/06/29 07:17:11;;;;;;;4.95;2.10;;;21.00;99.90;;;;;;5041770;28;20064;-78
2022/06/29 07:19:37;;;;;;;3.38;1.90;;;21.10;99.90;;;;;;5056636;28;20048;-78
2022/06/29 07:22:03;;;;;;;7.15;2.20;;;21.20;99.90;;;;;;5071958;28;20129;-78
2022/06/29 07:24:29;;;;;;;3.85;1.90;;;21.30;99.90;;;;;;5036907;28;20043;-78
2022/06/29 07:26:56;;;;;;;2.95;1.90;;;21.40;99.90;;;;;;5085713;28;20052;-79
2022/06/29 07:29:22;;;;;;;5.68;2.17;;;21.40;99.90;;;;;;5089647;28;20177;-78
2022/06/29 07:31:48;;;;;;;4.30;2.10;;;21.50;99.90;;;;;;5064823;28;20032;-78
2022/06/29 07:34:13;;;;;;;7.50;1.95;;;21.50;99.90;;;;;;5057279;28;20087;-78
2022/06/29 07:36:40;;;;;;;3.60;1.70;;;21.70;99.90;;;;;;5033220;28;20040;-78
2022/06/29 07:39:07;;;;;;;3.83;1.63;;;21.70;99.90;;;;;;5033273;28;20131;-80
2022/06/29 07:41:33;;;;;;;6.68;1.90;;;21.80;99.90;;;;;;5045749;28;20248;-81
2022/06/29 07:43:59;;;;;;;7.18;2.10;;;21.80;99.90;;;;;;5065550;28;20033;-77
2022/06/29 07:46:25;;;;;;;3.80;1.70;;;21.80;99.90;;;;;;5030038;28;20052;-76
2022/06/29 07:48:51;;;;;;;3.40;2.00;;;21.80;99.90;;;;;;5075711;28;20123;-76
2022/06/29 07:51:19;;;;;;;4.32;1.80;;;21.80;99.90;;;;;;5048792;28;20497;-75
2022/06/29 07:53:45;;;;;;;3.78;1.92;;;21.80;99.90;;;;;;5026340;28;20095;-76
2022/06/29 07:56:11;;;;;;;2.70;1.73;;;22.00;99.90;;;;;;5014043;28;20048;-78
2022/06/29 07:58:36;;;;;;;5.68;2.05;;;22.00;99.90;;;;;;5014339;28;21090;-79
2022/06/29 08:01:02;;;;;;;3.58;1.80;;;22.10;99.90;;;;;;5042580;28;20045;-78
2022/06/29 08:03:28;;;;;;;6.70;1.85;;;22.20;99.90;;;;;;5060548;28;20068;-78
2022/06/29 08:05:53;;;;;;;7.00;2.15;;;22.30;99.90;;;;;;5047471;28;20127;-77
2022/06/29 08:08:19;;;;;;;4.22;1.77;;;22.30;99.90;;;;;;5083376;28;20531;-77
2022/06/29 08:10:45;;;;;;;4.75;2.25;;;22.40;99.90;;;;;;5082702;28;20514;-77
2022/06/29 08:13:10;;;;;;;6.10;2.20;;;22.50;99.90;;;;;;5082300;28;20051;-77
2022/06/29 08:15:36;;;;;;;6.00;2.00;;;22.60;99.90;;;;;;5064754;28;20045;-77
2022/06/29 08:18:02;;;;;;;6.30;1.92;;;22.70;99.90;;;;;;5020969;28;20063;-77
2022/06/29 08:20:28;;;;;;;3.55;1.88;;;22.70;99.90;;;;;;5053558;28;20053;-77
2022/06/29 08:22:55;;;;;;;3.75;2.08;;;22.80;99.90;;;;;;5086792;28;20043;-79
2022/06/29 08:25:20;;;;;;;6.97;2.13;;;22.90;99.90;;;;;;5052509;28;20119;-78
2022/06/29 08:27:58;;;;;;;6.45;2.00;;;23.00;99.90;;;;;;5027060;28;20131;-79
2022/06/29 08:30:23;;;;;;;4.70;2.08;;;23.20;99.90;;;;;;5031842;28;20517;-79
2022/06/29 08:32:50;;;;;;;5.10;2.10;;;23.20;99.90;;;;;;5085141;28;20089;-79
2022/06/29 08:35:19;;;;;;;4.43;1.80;;;23.20;99.90;;;;;;5072238;28;20047;-80
2022/06/29 08:37:46;;;;;;;5.63;2.47;;;23.20;99.90;;;;;;5093561;28;20063;-78
2022/06/29 08:40:14;;;;;;;2.97;1.80;;;23.30;99.90;;;;;;5039200;28;20044;-76
2022/06/29 08:42:41;;;;;;;8.23;1.80;;;23.40;99.90;;;;;;5045510;28;20063;-80
2022/06/29 08:45:08;;;;;;;8.25;2.00;;;23.60;99.90;;;;;;5081954;28;20049;-77
2022/06/29 08:47:35;;;;;;;5.93;1.90;;;23.80;99.90;;;;;;5039754;28;20075;-78
2022/06/29 08:50:06;;;;;;;3.78;1.80;;;23.90;99.90;;;;;;5073067;28;20044;-81
2022/06/29 08:52:35;;;;;;;4.22;1.80;;;24.10;99.90;;;;;;5040545;28;20052;-77
2022/06/29 08:55:04;;;;;;;4.65;1.80;;;24.20;99.90;;;;;;5057418;28;20144;-75
2022/06/29 08:57:30;;;;;;;4.35;1.75;;;24.30;99.90;;;;;;5052228;28;20518;-78
2022/06/29 08:59:57;;;;;;;6.28;1.75;;;24.50;99.90;;;;;;5054727;28;20384;-76
2022/06/29 09:02:23;;;;;;;3.10;1.60;;;24.50;99.90;;;;;;5066477;28;20419;-82
2022/06/29 09:04:49;;;;;;;2.53;1.52;;;24.60;99.90;;;;;;5079141;28;20064;-77
2022/06/29 09:07:15;;;;;;;4.70;1.70;;;24.80;99.90;;;;;;5074183;28;20061;-74
2022/06/29 09:09:59;;;;;;;4.07;1.55;;;24.90;99.90;;;;;;5025085;28;20049;-77
2022/06/29 09:12:25;;;;;;;5.40;1.77;;;25.00;99.90;;;;;;5053519;28;20540;-77
2022/06/29 09:14:51;;;;;;;3.72;1.60;;;25.10;99.90;;;;;;5069267;28;20052;-78
2022/06/29 09:17:17;;;;;;;9.00;1.58;;;25.50;99.90;;;;;;5067597;28;20131;-78
2022/06/29 09:19:46;;;;;;;6.38;1.70;;;25.60;99.90;;;;;;5053217;28;20160;-76
2022/06/29 09:22:13;;;;;;;2.28;1.38;;;25.60;99.90;;;;;;5086145;28;20072;-76
2022/06/29 09:24:39;;;;;;;5.75;1.50;;;25.70;99.90;;;;;;5038732;28;20053;-77
2022/06/29 09:27:11;;;;;;;6.40;1.50;;;25.70;99.90;;;;;;5052776;28;20396;-75
2022/06/29 09:29:39;;;;;;;6.75;1.77;;;25.70;99.90;;;;;;5088931;28;20044;-76
2022/06/29 09:32:08;;;;;;;2.50;1.52;;;25.90;99.90;;;;;;5054323;28;20445;-76
2022/06/29 09:34:40;;;;;;;4.32;1.52;;;25.80;99.90;;;;;;5054502;28;20060;-77
2022/06/29 09:37:08;;;;;;;4.93;1.88;;;25.90;99.90;;;;;;5046304;28;20160;-78
2022/06/29 09:39:41;;;;;;;5.55;1.40;;;26.00;99.90;;;;;;5038439;28;20052;-78
2022/06/29 09:42:16;;;;;;;5.38;1.65;;;26.00;99.90;;;;;;5051582;28;20045;-78
2022/06/29 09:44:47;;;;;;;5.57;1.80;;;26.10;99.90;;;;;;5054979;28;20515;-79
2022/06/29 09:47:19;;;;;;;2.95;1.40;;;26.20;99.90;;;;;;5087481;28;20396;-77
2022/06/29 09:49:47;;;;;;;3.75;1.60;;;26.30;99.90;;;;;;5069336;28;20049;-76
2022/06/29 09:52:15;;;;;;;4.45;1.73;;;26.60;99.90;;;;;;5036951;28;20653;-78
2022/06/29 09:54:54;;;;;;;2.95;1.35;;;26.80;99.90;;;;;;5070944;28;20057;-75
2022/06/29 09:57:26;;;;;;;1.83;1.50;;;26.90;99.90;;;;;;5053872;28;20503;-78
2022/06/29 10:02:52;;;;;;;4.90;1.83;;;27.10;99.90;;;;;;5097151;28;20045;-76
2022/06/29 10:05:23;;;;;;;1.85;1.30;;;27.30;99.90;;;;;;5057401;28;20052;-78
2022/06/29 10:07:51;;;;;;;4.38;1.40;;;27.40;99.90;;;;;;5069893;28;20044;-76
2022/06/29 10:10:19;;;;;;;3.40;1.40;;;27.40;99.30;;;;;;5077753;28;20128;-77
2022/06/29 10:15:57;;;;;;;3.80;1.50;;;27.40;98.10;;;;;;5087661;28;20385;-76
2022/06/29 10:18:31;;;;;;;2.00;1.50;;;27.50;97.30;;;;;;5039466;28;20449;-76
2022/06/29 10:20:57;;;;;;;;;;;27.60;97.40;;;;;;5059092;28;20447;-78
2022/06/29 10:23:42;;;;;;;2.33;1.40;;;27.90;98.60;;;;;;5053567;28;20367;-77
2022/06/29 10:26:30;;;;;;;5.68;2.00;;;27.80;97.60;;;;;;5034404;28;20055;-77
2022/06/29 10:29:19;;;;;;;3.80;1.65;;;27.90;97.60;;;;;;5084282;28;20055;-75
2022/06/29 10:31:54;;;;;;;3.95;1.80;;;28.10;97.70;;;;;;5028867;28;20076;-75
2022/06/29 10:34:32;;;;;;;4.53;1.80;;;27.90;96.10;;;;;;5056785;28;20375;-79
2022/06/29 10:37:04;;;;;;;5.65;2.08;;;27.90;97.50;;;;;;5054160;28;20045;-79
2022/06/29 10:39:45;;;;;;;8.13;1.95;;;27.90;97.80;;;;;;5069160;28;20045;-78
2022/06/29 10:45:17;;;;;;;4.60;1.85;;;28.00;96.20;;;;;;5082080;28;20064;-77
2022/06/29 10:47:54;;;;;;;2.28;1.55;;;28.00;96.50;;;;;;5050756;28;20128;-79
2022/06/29 10:50:22;;;;;;;2.13;1.63;;;28.40;96.80;;;;;;5081219;28;20060;-76
2022/06/29 10:52:50;;;;;;;5.85;1.63;;;28.80;97.10;;;;;;5069552;28;20068;-75
2022/06/29 10:55:17;;;;;;;1.73;1.30;;;28.80;96.60;;;;;;5084803;28;20068;-78
2022/06/29 10:57:44;;;;;;;1.77;1.50;;;28.60;95.30;;;;;;5067466;28;20045;-77
2022/06/29 11:00:17;;;;;;;4.10;1.50;;;28.90;96.20;;;;;;5042222;28;20063;-78
2022/06/29 11:02:44;;;;;;;2.42;1.48;;;29.20;95.20;;;;;;5036319;28;20131;-75
2022/06/29 11:05:11;;;;;;;2.22;1.55;;;29.30;94.80;;;;;;5052759;28;20036;-76
2022/06/29 11:13:11;;;;;;;;;;;29.70;96.00;;;;;;5083241;28;20138;-77
2022/06/29 11:15:44;;;;;;;3.22;1.45;;;29.80;96.00;;;;;;5044529;28;19941;-77
2022/06/29 11:18:22;;;;;;;3.13;1.63;;;30.00;95.90;;;;;;5080313;28;20049;-79
2022/06/29 11:20:50;;;;;;;5.35;1.50;;;30.20;95.80;;;;;;5074920;28;20126;-77
2022/06/29 11:23:24;;;;;;;2.58;1.58;;;30.00;95.20;;;;;;5049500;28;20037;-75
2022/06/29 11:25:54;;;;;;;3.65;1.42;;;29.80;94.40;;;;;;5044810;28;21538;-75
2022/06/29 11:28:23;;;;;;;4.10;1.55;;;29.90;94.30;;;;;;5080774;28;20131;-78
2022/06/29 11:31:05;;;;;;;3.25;1.20;;;30.20;94.90;;;;;;5027642;28;20158;-76
2022/06/29 11:33:50;;;;;;;1.95;1.45;;;30.10;93.60;;;;;;5079411;28;20114;-75
2022/06/29 11:36:29;;;;;;;2.95;1.30;;;30.00;93.60;;;;;;5045544;28;20037;-77
2022/06/29 11:39:03;;;;;;;1.98;1.30;;;29.90;93.50;;;;;;5026010;28;20515;-78
2022/06/29 11:44:27;;;;;;;2.65;1.30;;;30.00;93.80;;;;;;4987431;28;20381;-76
2022/06/29 11:46:54;;;;;;;3.83;1.60;;;30.40;94.60;;;;;;5000261;28;20126;-76
2022/06/29 11:49:39;;;;;;;1.60;1.42;;;30.50;93.90;;;;;;4970018;28;20046;-78
2022/06/29 11:52:12;;;;;;;2.85;1.40;;;30.90;94.50;;;;;;4961157;28;20049;-78
2022/06/29 11:54:38;;;;;;;2.53;1.33;;;31.00;93.30;;;;;;4966058;28;20107;-77
2022/06/29 11:57:16;;;;;;;4.32;1.63;;;31.10;92.30;;;;;;4976546;28;20124;-79
2022/06/29 11:59:44;;;;;;;2.40;1.20;;;31.30;91.30;;;;;;4982770;28;20046;-78
2022/06/29 12:02:11;;;;;;;2.83;1.30;;;31.30;91.50;;;;;;4967285;28;20101;-77
2022/06/29 12:04:37;;;;;;;2.10;1.10;;;31.20;92.20;;;;;;4991834;28;20054;-74
2022/06/29 12:07:05;;;;;;;7.05;1.20;;;31.20;92.90;;;;;;4991308;28;20053;-77
2022/06/29 12:09:31;;;;;;;2.42;1.42;;;30.80;91.50;;;;;;4973479;28;20045;-76
2022/06/29 12:11:57;;;;;;;3.35;1.25;;;31.10;92.30;;;;;;4988116;28;20547;-75
2022/06/29 12:14:23;;;;;;;1.38;1.17;;;31.40;92.00;;;;;;4990837;28;20061;-76
2022/06/29 12:16:49;;;;;;;1.60;1.23;;;31.60;91.50;;;;;;4989299;28;20386;-76
2022/06/29 12:19:15;;;;;;;3.55;1.40;;;31.90;92.30;;;;;;4984316;28;20038;-77
2022/06/29 12:21:42;;;;;;;2.15;1.30;;;32.30;92.70;;;;;;5000658;28;20428;-78
2022/06/29 12:24:07;;;;;;;2.80;1.60;;;32.50;92.00;;;;;;5012345;28;20049;-79
2022/06/29 12:26:33;;;;;;;5.22;1.40;;;32.30;90.40;;;;;;5053336;28;20057;-75
2022/06/29 12:28:59;;;;;;;3.45;1.70;;;32.00;90.30;;;;;;5053678;28;20132;-76
2022/06/29 12:31:24;;;;;;;4.45;1.50;;;32.30;90.70;;;;;;5048635;28;20045;-79
2022/06/29 12:33:50;;;;;;;4.43;1.48;;;32.30;91.10;;;;;;5045375;28;20087;-77
2022/06/29 12:36:16;;;;;;;4.05;1.42;;;32.20;91.20;;;;;;5013963;28;20080;-77
2022/06/29 12:38:42;;;;;;;3.22;1.70;;;32.00;91.30;;;;;;5055322;28;20132;-79
2022/06/29 12:41:07;;;;;;;1.73;1.50;;;32.40;92.00;;;;;;5037661;28;20042;-79
2022/06/29 12:43:33;;;;;;;2.03;1.52;;;32.60;91.50;;;;;;5021914;28;20298;-79
2022/06/29 12:49:40;;;;;;;2.45;1.60;;;32.80;91.10;;;;;;5036859;28;20458;-76
2022/06/29 12:52:06;;;;;;;5.93;2.00;;;33.00;90.80;;;;;;5012383;28;20053;-77
2022/06/29 12:54:31;;;;;;;7.07;1.73;;;33.20;91.10;;;;;;5017127;28;20045;-78
2022/06/29 12:56:57;;;;;;;4.47;1.92;;;33.30;90.80;;;;;;5058472;28;20500;-79
2022/06/29 12:59:23;;;;;;;6.15;1.98;;;33.20;90.70;;;;;;5045908;28;20065;-76
2022/06/29 13:02:45;;;;;;;7.20;1.90;;;32.90;87.80;;;;;;5030096;28;20041;-76
2022/06/29 13:05:10;;;;;;;8.88;2.30;;;33.30;90.50;;;;;;5041951;28;20122;-75
2022/06/29 13:07:37;;;;;;;4.03;2.40;;;33.20;89.90;;;;;;5046558;28;20526;-84
2022/06/29 13:10:05;;;;;;;4.00;2.00;;;33.40;89.80;;;;;;5073110;28;20811;-81
2022/06/29 13:12:30;;;;;;;2.80;1.80;;;33.70;90.20;;;;;;5010697;28;20079;-80
2022/06/29 13:14:56;;;;;;;2.42;1.90;;;33.70;89.80;;;;;;5068223;28;20049;-78
2022/06/29 13:17:22;;;;;;;2.92;2.20;;;33.80;90.20;;;;;;5041887;28;20064;-76
2022/06/29 13:19:49;;;;;;;3.08;2.20;;;34.10;90.80;;;;;;5039224;28;20110;-83